Duluth International Airport
KDLH : now visible

Airfield :











YOU CAN JOIN US ON...

 
LOGIN :

Register | Disclaimer

   EN    FR    IT 

 









Legend :    VFR   Marginal VFR   IFR   Intensive IFR   Very Intensive IFR
Visi :
Ceiling :
>= 8 km
>= 3000ft
5 to 8 km
1000 to 3000 ft
1500m to 5 km
500 to 1000 ft
800 to 1500m
200 to 500 ft
< 800m
< 200 ft
Symbols :   Thunderstorms  Fog  Heavy snow  Heavy precipitations  Wind > 20 kt






- Airport Elevation : 1428 ft
- IATA code : DLH


KDLH - Duluth International

CURRENT METAR :
  • 081955Z 24012KT 10SM SCT029 29/22 A2994 RMK AO2 SLP133 T02940217

EXPIRED METARs :
  • 081855Z 22006G15KT 10SM SCT023 29/22 A2991 RMK AO2 SLP121 T02890217
  • 081755Z 22008KT 10SM FEW012 FEW040 28/22 A2991 RMK AO2 SLP123 T02830217 10289 20200 58007

TAF KDLH
Valid from the 08 at 18:00 until the 09 at 18:00 UTC


081734Z 0818/0918 24006KT P6SM FEW012
FM090500 00000KT P6SM BKN045
FM090600 00000KT 4SM BR OVC007
FM091500 10006KT P6SM OVC011
KZMP FIR / North America



MET'MAP, your aeronautical weather chart ! - Copyright ORBIFLY December 2007 - Disclaimer

ORBIFLY MET'MAP TEAM :

Programming & Development : Alexandra Zaïnal
Concept & original design : Baudouin d'Aumeries
Assistance for programming : Marc-Olivier Méhu
Technical & hardware support : Manuel Goepfert

Contact : metmap@orbifly.com




SOURCES & CREDITS :

   NOAA       Earth
Advisory